createdAt,value
2022-08-10T00:44:23.026Z,92.30
2022-08-10T00:46:48.963Z,91.80
2022-08-10T00:49:15.538Z,92.50
2022-08-10T11:10:33.872Z,70.70
2022-08-10T11:13:05.349Z,71.80
2022-08-10T11:15:47.698Z,70.90
2022-08-10T11:18:14.081Z,68.70
2022-08-10T11:20:43.097Z,69.50
2022-08-10T11:23:09.086Z,67.30
2022-08-10T11:25:35.022Z,68.30
2022-08-10T11:28:00.961Z,68.90
2022-08-10T11:30:26.947Z,68.20
2022-08-10T11:32:52.903Z,69.10
2022-08-10T11:35:18.877Z,68.10
2022-08-10T11:38:31.397Z,68.40
2022-08-10T11:40:30.989Z,70.00
2022-08-10T11:42:56.970Z,69.10
2022-08-10T11:45:22.917Z,71.10
2022-08-10T11:47:48.853Z,70.50
2022-08-10T11:50:14.844Z,70.80
2022-08-10T11:52:40.795Z,71.50
2022-08-10T11:55:06.738Z,73.60
2022-08-10T11:57:54.714Z,72.30
2022-08-10T12:00:18.671Z,70.80
2022-08-10T12:02:44.745Z,67.90
2022-08-10T12:05:10.745Z,70.50
2022-08-10T12:10:07.323Z,67.20
2022-08-10T12:10:22.675Z,68.90
2022-08-10T12:12:48.618Z,68.80
2022-08-10T12:15:14.553Z,72.00
2022-08-10T12:17:40.538Z,69.20
2022-08-10T12:20:06.595Z,70.70
2022-08-10T12:22:32.680Z,70.10
2022-08-10T12:24:58.762Z,69.50
2022-08-10T12:27:24.711Z,68.60
2022-08-10T12:29:50.688Z,65.40
2022-08-10T12:32:16.678Z,69.40
2022-08-10T12:34:50.983Z,67.60
2022-08-10T12:37:17.115Z,66.80
2022-08-10T12:39:43.138Z,65.90
2022-08-10T12:42:09.134Z,65.20
2022-08-10T12:44:41.743Z,65.90
2022-08-10T12:47:14.119Z,65.40
2022-08-10T12:49:40.606Z,65.30
2022-08-10T12:52:26.686Z,63.70
2022-08-10T12:54:52.714Z,64.70
2022-08-10T12:57:18.658Z,65.80
2022-08-10T12:59:44.607Z,64.80
2022-08-10T13:02:11.106Z,67.90
2022-08-10T13:04:37.150Z,64.50
2022-08-10T13:07:03.106Z,68.00
2022-08-10T13:09:29.119Z,65.30
2022-08-10T13:12:44.271Z,68.70
2022-08-10T13:14:41.073Z,63.40
2022-08-10T13:17:07.010Z,63.80
2022-08-10T13:19:55.211Z,65.90
2022-08-10T13:22:20.203Z,66.20
2022-08-10T13:24:46.568Z,70.90
2022-08-10T13:27:26.686Z,64.10
2022-08-10T13:29:53.494Z,64.30
2022-08-10T13:32:19.967Z,65.40
2022-08-10T13:34:46.492Z,64.50
2022-08-10T13:37:13.117Z,63.80
2022-08-10T13:39:59.857Z,62.60
2022-08-10T13:42:31.941Z,64.10
2022-08-10T13:44:59.220Z,65.40
2022-08-10T13:47:25.512Z,61.50
2022-08-10T13:49:51.767Z,61.50
2022-08-10T13:52:18.925Z,63.70
2022-08-10T13:54:44.908Z,63.70
2022-08-10T13:57:10.893Z,64.80
2022-08-10T14:00:35.372Z,63.50
2022-08-10T14:02:22.844Z,65.70
2022-08-10T14:04:48.807Z,65.60
2022-08-10T14:07:14.751Z,64.40
2022-08-10T14:09:40.732Z,64.70
2022-08-10T14:12:06.692Z,65.30
2022-08-10T14:14:32.638Z,67.70
2022-08-10T14:16:58.648Z,66.10
2022-08-10T14:19:24.586Z,68.70
2022-08-10T14:21:50.901Z,65.60
2022-08-10T14:24:16.890Z,65.40
2022-08-10T14:26:42.825Z,66.10
2022-08-10T14:29:08.774Z,64.80
2022-08-10T14:31:34.767Z,63.40
2022-08-10T14:34:00.712Z,66.50
2022-08-10T14:36:26.657Z,63.00
2022-08-10T14:38:53.109Z,64.00
2022-08-10T14:42:01.132Z,65.40
2022-08-10T14:44:05.121Z,64.70
2022-08-10T14:46:31.057Z,65.30
2022-08-10T14:48:58.791Z,67.00
2022-08-10T14:51:24.771Z,63.50
2022-08-10T14:53:53.644Z,68.10
2022-08-10T14:56:20.142Z,67.40
2022-08-10T14:58:58.798Z,63.20
2022-08-10T15:02:00.158Z,65.90
2022-08-10T15:04:18.098Z,65.40
2022-08-10T15:06:47.497Z,63.70
2022-08-10T15:09:19.903Z,63.60
2022-08-10T15:12:15.513Z,63.60
2022-08-10T15:14:42.174Z,61.50
2022-08-10T15:17:09.761Z,62.90
2022-08-10T15:20:02.352Z,63.00
2022-08-10T15:22:37.017Z,62.60
2022-08-10T15:25:04.260Z,62.50
2022-08-10T15:27:30.230Z,58.90
2022-08-10T15:29:56.977Z,59.30
2022-08-10T15:32:24.077Z,59.90
2022-08-10T15:34:52.872Z,61.10
2022-08-10T15:37:47.164Z,60.30
2022-08-10T15:40:25.729Z,57.70
2022-08-10T15:42:51.597Z,59.00
2022-08-10T15:45:17.591Z,57.60
2022-08-10T15:47:45.841Z,58.90
2022-08-10T15:50:12.611Z,57.50
2022-08-10T15:52:39.899Z,58.40
2022-08-10T15:55:42.821Z,58.40
2022-08-10T15:58:10.506Z,60.30
2022-08-10T16:00:36.451Z,57.50
2022-08-10T16:03:02.446Z,58.70
2022-08-10T16:06:01.090Z,58.20
2022-08-10T16:08:17.215Z,59.20
2022-08-10T16:10:43.283Z,59.80
2022-08-10T16:13:50.490Z,60.00
2022-08-10T16:16:05.607Z,57.80
2022-08-10T16:18:31.559Z,58.30
2022-08-10T16:20:57.535Z,58.40
2022-08-10T16:23:23.539Z,59.30
2022-08-10T16:25:53.490Z,59.00
2022-08-10T16:28:26.565Z,58.50
2022-08-10T16:30:52.530Z,59.00
2022-08-10T16:33:18.505Z,60.60
2022-08-10T16:35:49.494Z,59.50
2022-08-10T16:38:15.894Z,58.90
2022-08-10T16:40:41.897Z,58.40
2022-08-10T16:43:07.946Z,58.30
2022-08-10T16:45:33.930Z,59.90
2022-08-10T16:47:59.856Z,61.40
2022-08-10T16:50:25.844Z,59.20
2022-08-10T16:52:51.799Z,59.70
2022-08-10T16:55:24.762Z,59.10
2022-08-10T16:58:03.715Z,61.10
2022-08-10T17:00:29.656Z,62.70
2022-08-10T17:02:55.589Z,61.50
2022-08-10T17:06:09.731Z,62.30
2022-08-10T17:08:07.489Z,61.20
2022-08-10T17:10:33.480Z,65.90
2022-08-10T17:12:59.423Z,63.70
2022-08-10T17:15:25.399Z,64.50
2022-08-10T17:17:51.429Z,65.60
2022-08-10T17:20:32.084Z,65.80
2022-08-10T17:22:58.673Z,67.40
2022-08-10T17:25:25.010Z,66.30
2022-08-10T17:28:11.000Z,67.60
2022-08-10T17:30:57.513Z,65.90
2022-08-10T17:33:24.424Z,67.30
2022-08-10T17:35:50.379Z,69.80
2022-08-10T17:38:16.325Z,66.10
2022-08-10T17:40:42.318Z,67.50
2022-08-10T17:43:08.263Z,66.60
2022-08-10T17:45:46.492Z,70.00
2022-08-10T17:48:15.246Z,70.50
2022-08-10T17:50:41.191Z,69.50
2022-08-10T17:53:07.142Z,69.10
2022-08-10T17:55:33.131Z,71.00
2022-08-10T17:58:01.917Z,70.10
2022-08-10T18:00:28.695Z,70.40
2022-08-10T18:02:54.779Z,69.70
2022-08-10T18:05:20.729Z,72.90
2022-08-10T18:07:46.679Z,71.30
2022-08-10T18:10:12.675Z,71.80
2022-08-10T18:12:39.157Z,70.80
2022-08-10T18:15:05.162Z,71.90
2022-08-10T18:17:37.540Z,70.80
2022-08-10T18:20:05.166Z,72.90
2022-08-10T18:22:31.110Z,72.30
2022-08-10T18:24:58.351Z,70.80
2022-08-10T18:28:00.214Z,72.70
2022-08-10T18:30:10.295Z,73.00
2022-08-10T18:32:36.239Z,73.30
2022-08-10T18:35:02.183Z,73.50
2022-08-10T18:37:28.214Z,72.30
2022-08-10T18:39:54.210Z,72.70
2022-08-10T18:42:20.212Z,73.50
2022-08-10T18:44:46.196Z,75.40
2022-08-10T18:47:12.137Z,74.30
2022-08-10T18:49:38.125Z,74.30
2022-08-10T18:52:04.106Z,75.50
2022-08-10T18:54:34.483Z,75.00
2022-08-10T18:57:10.570Z,72.00
2022-08-10T18:59:36.510Z,73.80
2022-08-10T19:02:02.460Z,74.10
2022-08-10T19:04:28.455Z,75.10
2022-08-10T19:06:54.423Z,74.80
2022-08-10T19:09:45.438Z,74.80
2022-08-10T19:12:06.370Z,75.80
2022-08-10T19:14:52.294Z,75.40
2022-08-10T19:17:18.297Z,75.40
2022-08-10T19:19:44.230Z,75.30
2022-08-10T19:22:10.183Z,75.10
2022-08-10T19:24:36.180Z,75.00
2022-08-10T19:27:02.142Z,74.40
2022-08-10T19:30:08.441Z,75.30
2022-08-10T19:32:14.178Z,74.90
2022-08-10T19:34:40.149Z,74.00
2022-08-10T19:37:06.086Z,74.90
2022-08-10T19:39:32.139Z,74.20
2022-08-10T19:42:11.850Z,74.10
2022-08-10T19:44:38.498Z,74.50
2022-08-10T19:47:04.444Z,75.60
2022-08-10T19:49:30.402Z,75.40
2022-08-10T19:52:05.014Z,77.00
2022-08-10T19:54:37.031Z,78.90
2022-08-10T19:57:02.995Z,78.60
2022-08-10T20:00:15.246Z,78.20
2022-08-10T20:02:14.979Z,78.00
2022-08-10T20:04:40.991Z,78.20
2022-08-10T20:07:06.946Z,78.60
2022-08-10T20:09:32.895Z,78.70
2022-08-10T20:11:58.911Z,78.00
2022-08-10T20:14:24.860Z,78.40
2022-08-10T20:16:50.799Z,77.70
2022-08-10T20:19:17.464Z,77.10
2022-08-10T20:21:43.413Z,77.50
2022-08-10T20:24:09.358Z,75.10
2022-08-10T20:26:35.350Z,78.20
2022-08-10T20:29:01.308Z,77.50
2022-08-10T20:31:27.245Z,79.10
2022-08-10T20:33:56.355Z,77.70
2022-08-10T20:36:24.662Z,77.30
2022-08-10T20:38:50.603Z,77.70
2022-08-10T20:41:16.580Z,77.70
2022-08-10T20:43:42.536Z,77.20
2022-08-10T20:46:09.439Z,76.10
2022-08-10T20:48:35.569Z,77.80
2022-08-10T20:51:01.511Z,76.70
2022-08-10T20:53:27.454Z,76.60
2022-08-10T20:55:54.246Z,78.10
2022-08-10T20:58:20.413Z,77.30
2022-08-10T21:00:46.399Z,77.60
2022-08-10T21:03:15.987Z,77.20
2022-08-10T21:05:47.299Z,76.10
2022-08-10T21:08:13.294Z,77.20
2022-08-10T21:10:39.251Z,75.90
2022-08-10T21:13:05.209Z,77.70
2022-08-10T21:15:31.216Z,77.20
2022-08-10T21:18:08.119Z,77.80
2022-08-10T21:20:34.159Z,77.70
2022-08-10T21:23:05.420Z,77.60
2022-08-10T21:25:31.712Z,79.40
2022-08-10T21:27:59.149Z,77.70
2022-08-10T21:30:25.089Z,79.10
2022-08-10T21:32:51.035Z,78.20
2022-08-10T21:35:20.136Z,78.60
2022-08-10T21:38:02.147Z,78.90
2022-08-10T21:40:35.255Z,79.50
2022-08-10T21:43:01.845Z,80.70
2022-08-10T21:45:47.535Z,81.20
2022-08-10T21:48:17.233Z,79.80
2022-08-10T21:50:45.721Z,79.70
2022-08-10T21:53:12.310Z,80.00
2022-08-10T21:58:28.740Z,79.70
2022-08-10T22:00:54.784Z,82.10
2022-08-10T22:03:20.810Z,82.20
2022-08-10T22:05:46.753Z,81.90
2022-08-10T22:08:12.721Z,81.00
2022-08-10T22:10:40.951Z,81.10
2022-08-10T22:13:08.569Z,81.80
2022-08-10T22:16:03.603Z,82.70
2022-08-10T22:21:08.977Z,82.30
2022-08-10T22:23:34.875Z,83.30
2022-08-10T22:26:01.988Z,82.90
2022-08-10T22:28:27.926Z,81.60
2022-08-10T22:31:28.428Z,80.30
2022-08-10T22:31:28.552Z,82.50
2022-08-10T22:31:28.835Z,83.00
2022-08-10T22:33:39.962Z,82.20
2022-08-10T22:36:05.857Z,82.60
2022-08-10T22:38:31.756Z,83.80
2022-08-10T22:40:57.725Z,82.60
2022-08-10T22:43:35.168Z,83.20
2022-08-10T22:46:01.868Z,82.30
2022-08-10T22:48:27.770Z,83.20
2022-08-10T22:50:53.669Z,82.80
2022-08-10T22:53:19.636Z,82.60
2022-08-10T22:55:45.538Z,83.80
2022-08-10T22:58:11.429Z,82.90
2022-08-10T23:00:37.407Z,84.40
2022-08-10T23:03:03.349Z,82.60
2022-08-10T23:05:29.304Z,82.50
2022-08-10T23:07:55.254Z,81.70
2022-08-10T23:10:21.143Z,81.80
2022-08-10T23:12:47.030Z,83.10
2022-08-10T23:15:12.982Z,83.20
2022-08-10T23:18:00.849Z,83.00
2022-08-10T23:20:24.790Z,83.70
2022-08-10T23:22:50.728Z,84.10
2022-08-10T23:25:16.667Z,83.80
2022-08-10T23:27:44.869Z,84.20
2022-08-10T23:30:16.966Z,83.90
2022-08-10T23:32:44.121Z,84.10
2022-08-10T23:36:29.498Z,85.20
2022-08-10T23:37:55.951Z,85.10
2022-08-10T23:40:21.895Z,84.60
2022-08-10T23:42:48.955Z,85.70
2022-08-10T23:45:14.846Z,84.90
2022-08-10T23:47:40.799Z,84.70
2022-08-10T23:50:06.718Z,86.80
2022-08-10T23:52:32.616Z,85.60
2022-08-10T23:54:58.570Z,86.10
2022-08-10T23:57:24.468Z,86.10
2022-08-10T23:59:50.371Z,85.50
